sensor_id;sensor_type;location;lat;lon;timestamp;pressure;altitude;pressure_sealevel;temperature;humidity
43420;BME280;29017;51.514;-0.178;2023-05-10T00:02:13;100589.81;;;14.78;98.29
43420;BME280;29017;51.514;-0.178;2023-05-10T00:04:40;100588.19;;;14.77;98.87
43420;BME280;29017;51.514;-0.178;2023-05-10T00:07:07;100583.69;;;14.77;98.87
43420;BME280;29017;51.514;-0.178;2023-05-10T00:09:36;100590.19;;;14.75;99.14
43420;BME280;29017;51.514;-0.178;2023-05-10T00:12:05;100591.00;;;14.75;99.29
43420;BME280;29017;51.514;-0.178;2023-05-10T00:14:32;100590.19;;;14.75;99.26
43420;BME280;29017;51.514;-0.178;2023-05-10T00:16:59;100592.22;;;14.73;99.19
43420;BME280;29017;51.514;-0.178;2023-05-10T00:19:27;100592.38;;;14.71;99.11
43420;BME280;29017;51.514;-0.178;2023-05-10T00:21:54;100595.03;;;14.71;99.97
43420;BME280;29017;51.514;-0.178;2023-05-10T00:24:21;100597.50;;;14.73;99.71
43420;BME280;29017;51.514;-0.178;2023-05-10T00:26:48;100592.00;;;14.74;99.73
43420;BME280;29017;51.514;-0.178;2023-05-10T00:29:15;100603.25;;;14.76;100.00
43420;BME280;29017;51.514;-0.178;2023-05-10T00:31:42;100600.41;;;14.78;100.00
43420;BME280;29017;51.514;-0.178;2023-05-10T00:34:09;100603.06;;;14.78;100.00
43420;BME280;29017;51.514;-0.178;2023-05-10T00:36:36;100604.06;;;14.77;99.54
43420;BME280;29017;51.514;-0.178;2023-05-10T00:39:03;100602.25;;;14.77;100.00
43420;BME280;29017;51.514;-0.178;2023-05-10T00:41:32;100609.16;;;14.78;100.00
43420;BME280;29017;51.514;-0.178;2023-05-10T00:44:02;100603.25;;;14.76;99.93
43420;BME280;29017;51.514;-0.178;2023-05-10T00:46:31;100598.50;;;14.72;99.57
43420;BME280;29017;51.514;-0.178;2023-05-10T00:49:01;100600.16;;;14.73;100.00
43420;BME280;29017;51.514;-0.178;2023-05-10T00:51:30;100601.50;;;14.69;100.00
43420;BME280;29017;51.514;-0.178;2023-05-10T00:53:58;100596.84;;;14.71;100.00
43420;BME280;29017;51.514;-0.178;2023-05-10T00:56:25;100600.31;;;14.71;100.00
43420;BME280;29017;51.514;-0.178;2023-05-10T00:58:53;100603.81;;;14.72;100.00
43420;BME280;29017;51.514;-0.178;2023-05-10T01:01:20;100606.25;;;14.73;100.00
43420;BME280;29017;51.514;-0.178;2023-05-10T01:03:47;100606.81;;;14.69;99.95
43420;BME280;29017;51.514;-0.178;2023-05-10T01:06:15;100611.28;;;14.68;100.00
43420;BME280;29017;51.514;-0.178;2023-05-10T01:08:42;100610.28;;;14.69;99.90
43420;BME280;29017;51.514;-0.178;2023-05-10T01:11:09;100610.28;;;14.69;100.00
43420;BME280;29017;51.514;-0.178;2023-05-10T01:13:41;100613.91;;;14.68;100.00
43420;BME280;29017;51.514;-0.178;2023-05-10T01:16:08;100615.56;;;14.69;100.00
43420;BME280;29017;51.514;-0.178;2023-05-10T01:18:39;100620.69;;;14.71;100.00
43420;BME280;29017;51.514;-0.178;2023-05-10T01:24:06;100618.22;;;14.69;100.00
43420;BME280;29017;51.514;-0.178;2023-05-10T01:29:19;100619.97;;;14.62;100.00
43420;BME280;29017;51.514;-0.178;2023-05-10T01:34:47;100615.84;;;14.60;100.00
43420;BME280;29017;51.514;-0.178;2023-05-10T01:37:25;100617.34;;;14.62;100.00
43420;BME280;29017;51.514;-0.178;2023-05-10T01:40:00;100618.94;;;14.63;100.00
43420;BME280;29017;51.514;-0.178;2023-05-10T01:42:36;100621.97;;;14.60;100.00
43420;BME280;29017;51.514;-0.178;2023-05-10T01:45:11;100625.28;;;14.62;100.00
43420;BME280;29017;51.514;-0.178;2023-05-10T01:47:43;100629.09;;;14.60;100.00
43420;BME280;29017;51.514;-0.178;2023-05-10T01:50:24;100626.63;;;14.58;100.00
43420;BME280;29017;51.514;-0.178;2023-05-10T01:52:57;100629.66;;;14.55;100.00
43420;BME280;29017;51.514;-0.178;2023-05-10T01:55:29;100631.47;;;14.54;100.00
43420;BME280;29017;51.514;-0.178;2023-05-10T01:58:10;100631.31;;;14.56;100.00
43420;BME280;29017;51.514;-0.178;2023-05-10T02:00:41;100628.81;;;14.54;100.00
43420;BME280;29017;51.514;-0.178;2023-05-10T02:03:10;100628.00;;;14.54;100.00
43420;BME280;29017;51.514;-0.178;2023-05-10T02:05:39;100634.50;;;14.51;100.00
43420;BME280;29017;51.514;-0.178;2023-05-10T02:08:08;100636.94;;;14.53;100.00
43420;BME280;29017;51.514;-0.178;2023-05-10T02:10:36;100643.44;;;14.50;100.00
43420;BME280;29017;51.514;-0.178;2023-05-10T02:13:05;100639.97;;;14.50;100.00
43420;BME280;29017;51.514;-0.178;2023-05-10T02:15:34;100648.91;;;14.49;100.00
43420;BME280;29017;51.514;-0.178;2023-05-10T02:18:02;100639.31;;;14.48;100.00
43420;BME280;29017;51.514;-0.178;2023-05-10T02:20:31;100638.31;;;14.49;100.00
43420;BME280;29017;51.514;-0.178;2023-05-10T02:22:59;100642.78;;;14.48;100.00
43420;BME280;29017;51.514;-0.178;2023-05-10T02:25:29;100650.13;;;14.46;100.00
43420;BME280;29017;51.514;-0.178;2023-05-10T02:28:03;100643.00;;;14.47;100.00
43420;BME280;29017;51.514;-0.178;2023-05-10T02:30:33;100649.75;;;14.49;100.00
43420;BME280;29017;51.514;-0.178;2023-05-10T02:33:03;100659.34;;;14.50;100.00
43420;BME280;29017;51.514;-0.178;2023-05-10T02:35:31;100656.69;;;14.50;100.00
43420;BME280;29017;51.514;-0.178;2023-05-10T02:38:01;100658.06;;;14.46;100.00
43420;BME280;29017;51.514;-0.178;2023-05-10T02:40:28;100665.00;;;14.47;100.00
43420;BME280;29017;51.514;-0.178;2023-05-10T02:42:56;100665.00;;;14.47;100.00
43420;BME280;29017;51.514;-0.178;2023-05-10T02:45:29;100668.44;;;14.48;100.00
43420;BME280;29017;51.514;-0.178;2023-05-10T02:47:59;100670.09;;;14.49;100.00
43420;BME280;29017;51.514;-0.178;2023-05-10T02:50:28;100672.56;;;14.50;100.00
43420;BME280;29017;51.514;-0.178;2023-05-10T02:53:00;100682.16;;;14.51;100.00
43420;BME280;29017;51.514;-0.178;2023-05-10T02:55:34;100678.88;;;14.49;100.00
43420;BME280;29017;51.514;-0.178;2023-05-10T02:58:03;100688.63;;;14.49;99.95
43420;BME280;29017;51.514;-0.178;2023-05-10T03:00:30;100682.50;;;14.48;99.67
43420;BME280;29017;51.514;-0.178;2023-05-10T03:02:57;100685.16;;;14.48;99.89
43420;BME280;29017;51.514;-0.178;2023-05-10T03:05:25;100680.88;;;14.47;99.78
43420;BME280;29017;51.514;-0.178;2023-05-10T03:07:53;100682.72;;;14.47;99.77
43420;BME280;29017;51.514;-0.178;2023-05-10T03:10:27;100685.53;;;14.45;99.70
43420;BME280;29017;51.514;-0.178;2023-05-10T03:15:57;100686.91;;;14.41;99.13
43420;BME280;29017;51.514;-0.178;2023-05-10T03:18:30;100684.44;;;14.40;99.25
43420;BME280;29017;51.514;-0.178;2023-05-10T03:21:03;100677.47;;;14.39;99.69
43420;BME280;29017;51.514;-0.178;2023-05-10T03:23:35;100682.16;;;14.37;99.85
43420;BME280;29017;51.514;-0.178;2023-05-10T03:26:07;100684.59;;;14.38;99.97
43420;BME280;29017;51.514;-0.178;2023-05-10T03:28:35;100683.13;;;14.36;99.87
43420;BME280;29017;51.514;-0.178;2023-05-10T03:31:04;100684.94;;;14.35;100.00
43420;BME280;29017;51.514;-0.178;2023-05-10T03:33:33;100685.63;;;14.37;100.00
43420;BME280;29017;51.514;-0.178;2023-05-10T03:36:04;100680.47;;;14.36;99.82
43420;BME280;29017;51.514;-0.178;2023-05-10T03:38:31;100686.09;;;14.33;99.27
43420;BME280;29017;51.514;-0.178;2023-05-10T03:40:58;100683.47;;;14.33;99.30
43420;BME280;29017;51.514;-0.178;2023-05-10T03:43:25;100685.50;;;14.31;99.14
43420;BME280;29017;51.514;-0.178;2023-05-10T03:45:52;100690.94;;;14.29;99.11
43420;BME280;29017;51.514;-0.178;2023-05-10T03:48:19;100682.19;;;14.29;99.26
43420;BME280;29017;51.514;-0.178;2023-05-10T03:50:46;100692.31;;;14.25;98.89
43420;BME280;29017;51.514;-0.178;2023-05-10T03:53:13;100693.31;;;14.24;98.95
43420;BME280;29017;51.514;-0.178;2023-05-10T03:55:40;100699.44;;;14.25;98.83
43420;BME280;29017;51.514;-0.178;2023-05-10T03:58:11;100699.44;;;14.25;99.06
43420;BME280;29017;51.514;-0.178;2023-05-10T04:00:38;100695.13;;;14.24;98.89
43420;BME280;29017;51.514;-0.178;2023-05-10T04:03:10;100697.94;;;14.22;99.01
43420;BME280;29017;51.514;-0.178;2023-05-10T04:05:39;100699.81;;;14.22;99.18
43420;BME280;29017;51.514;-0.178;2023-05-10T04:08:09;100701.63;;;14.21;99.14
43420;BME280;29017;51.514;-0.178;2023-05-10T04:10:36;100696.34;;;14.21;99.15
43420;BME280;29017;51.514;-0.178;2023-05-10T04:13:03;100704.28;;;14.21;99.03
43420;BME280;29017;51.514;-0.178;2023-05-10T04:15:30;100710.41;;;14.22;98.99
43420;BME280;29017;51.514;-0.178;2023-05-10T04:17:57;100710.91;;;14.17;98.49
43420;BME280;29017;51.514;-0.178;2023-05-10T04:20:24;100703.34;;;14.14;98.49
43420;BME280;29017;51.514;-0.178;2023-05-10T04:22:52;100717.09;;;14.09;98.18
43420;BME280;29017;51.514;-0.178;2023-05-10T04:25:19;100714.47;;;14.09;98.53
43420;BME280;29017;51.514;-0.178;2023-05-10T04:27:46;100716.44;;;14.07;98.72
43420;BME280;29017;51.514;-0.178;2023-05-10T04:30:14;100709.69;;;14.05;98.78
43420;BME280;29017;51.514;-0.178;2023-05-10T04:32:41;100714.16;;;14.04;98.79
43420;BME280;29017;51.514;-0.178;2023-05-10T04:35:11;100718.47;;;14.05;99.43
43420;BME280;29017;51.514;-0.178;2023-05-10T04:37:38;100716.00;;;14.04;99.10
43420;BME280;29017;51.514;-0.178;2023-05-10T04:40:07;100727.94;;;14.00;98.48
43420;BME280;29017;51.514;-0.178;2023-05-10T04:42:34;100725.28;;;14.00;98.98
43420;BME280;29017;51.514;-0.178;2023-05-10T04:45:01;100734.22;;;13.99;98.76
43420;BME280;29017;51.514;-0.178;2023-05-10T04:47:30;100730.91;;;13.97;98.28
43420;BME280;29017;51.514;-0.178;2023-05-10T04:49:57;100734.38;;;13.97;99.02
43420;BME280;29017;51.514;-0.178;2023-05-10T04:52:25;100736.19;;;13.97;98.50
43420;BME280;29017;51.514;-0.178;2023-05-10T04:54:53;100739.88;;;13.96;98.30
43420;BME280;29017;51.514;-0.178;2023-05-10T04:57:20;100746.97;;;13.95;98.26
43420;BME280;29017;51.514;-0.178;2023-05-10T04:59:47;100745.50;;;13.93;98.15
43420;BME280;29017;51.514;-0.178;2023-05-10T05:02:16;100746.69;;;13.90;97.84
43420;BME280;29017;51.514;-0.178;2023-05-10T05:04:43;100752.16;;;13.89;97.75
43420;BME280;29017;51.514;-0.178;2023-05-10T05:07:10;100760.44;;;13.86;97.02
43420;BME280;29017;51.514;-0.178;2023-05-10T05:09:38;100751.03;;;13.83;96.42
43420;BME280;29017;51.514;-0.178;2023-05-10T05:12:05;100755.50;;;13.83;96.64
43420;BME280;29017;51.514;-0.178;2023-05-10T05:14:32;100761.44;;;13.85;97.02
43420;BME280;29017;51.514;-0.178;2023-05-10T05:16:59;100766.72;;;13.85;96.98
43420;BME280;29017;51.514;-0.178;2023-05-10T05:19:26;100770.19;;;13.85;97.00
43420;BME280;29017;51.514;-0.178;2023-05-10T05:21:55;100778.13;;;13.85;97.35
43420;BME280;29017;51.514;-0.178;2023-05-10T05:24:22;100777.94;;;13.87;97.94
43420;BME280;29017;51.514;-0.178;2023-05-10T05:26:49;100785.06;;;13.86;97.67
43420;BME280;29017;51.514;-0.178;2023-05-10T05:29:16;100787.88;;;13.85;97.87
43420;BME280;29017;51.514;-0.178;2023-05-10T05:31:44;100789.53;;;13.86;97.47
43420;BME280;29017;51.514;-0.178;2023-05-10T05:34:11;100800.59;;;13.89;97.55
43420;BME280;29017;51.514;-0.178;2023-05-10T05:36:38;100791.66;;;13.90;97.09
43420;BME280;29017;51.514;-0.178;2023-05-10T05:39:05;100789.19;;;13.89;97.16
43420;BME280;29017;51.514;-0.178;2023-05-10T05:41:34;100790.66;;;13.91;97.87
43420;BME280;29017;51.514;-0.178;2023-05-10T05:44:05;100797.41;;;13.94;98.42
43420;BME280;29017;51.514;-0.178;2023-05-10T05:46:32;100796.59;;;13.93;97.42
43420;BME280;29017;51.514;-0.178;2023-05-10T05:48:59;100795.13;;;13.91;96.52
43420;BME280;29017;51.514;-0.178;2023-05-10T05:51:26;100799.22;;;13.93;97.02
43420;BME280;29017;51.514;-0.178;2023-05-10T05:53:53;100801.06;;;13.93;96.03
43420;BME280;29017;51.514;-0.178;2023-05-10T05:56:20;100805.50;;;13.92;95.72
43420;BME280;29017;51.514;-0.178;2023-05-10T05:58:51;100804.06;;;13.90;95.58
43420;BME280;29017;51.514;-0.178;2023-05-10T06:01:18;100808.22;;;13.84;95.61
43420;BME280;29017;51.514;-0.178;2023-05-10T06:03:45;100809.75;;;13.79;95.66
43420;BME280;29017;51.514;-0.178;2023-05-10T06:06:13;100819.66;;;13.77;95.89
43420;BME280;29017;51.514;-0.178;2023-05-10T06:08:40;100817.00;;;13.77;95.71
43420;BME280;29017;51.514;-0.178;2023-05-10T06:11:07;100814.88;;;13.80;95.89
43420;BME280;29017;51.514;-0.178;2023-05-10T06:13:36;100804.75;;;13.84;96.05
43420;BME280;29017;51.514;-0.178;2023-05-10T06:16:05;100812.97;;;13.89;95.90
43420;BME280;29017;51.514;-0.178;2023-05-10T06:18:33;100813.44;;;13.92;95.96
43420;BME280;29017;51.514;-0.178;2023-05-10T06:21:01;100816.59;;;13.96;94.99
43420;BME280;29017;51.514;-0.178;2023-05-10T06:23:30;100818.50;;;14.02;94.95
43420;BME280;29017;51.514;-0.178;2023-05-10T06:25:57;100816.66;;;14.10;94.35
43420;BME280;29017;51.514;-0.178;2023-05-10T06:28:24;100823.81;;;14.25;94.00
43420;BME280;29017;51.514;-0.178;2023-05-10T06:30:51;100824.94;;;14.53;93.01
43420;BME280;29017;51.514;-0.178;2023-05-10T06:33:18;100824.47;;;14.72;92.26
43420;BME280;29017;51.514;-0.178;2023-05-10T06:35:45;100831.31;;;14.81;91.74
43420;BME280;29017;51.514;-0.178;2023-05-10T06:38:12;100833.59;;;14.84;90.74
43420;BME280;29017;51.514;-0.178;2023-05-10T06:40:41;100844.50;;;15.04;89.07
43420;BME280;29017;51.514;-0.178;2023-05-10T06:43:09;100837.66;;;15.24;87.93
43420;BME280;29017;51.514;-0.178;2023-05-10T06:45:37;100826.72;;;15.27;87.55
43420;BME280;29017;51.514;-0.178;2023-05-10T06:48:05;100828.91;;;15.38;87.52
43420;BME280;29017;51.514;-0.178;2023-05-10T06:50:35;100825.75;;;15.50;87.39
43420;BME280;29017;51.514;-0.178;2023-05-10T06:53:02;100828.25;;;15.51;86.22
43420;BME280;29017;51.514;-0.178;2023-05-10T06:55:30;100839.78;;;15.44;84.69
43420;BME280;29017;51.514;-0.178;2023-05-10T06:57:58;100829.81;;;15.31;85.50
43420;BME280;29017;51.514;-0.178;2023-05-10T07:00:25;100831.19;;;15.27;87.11
43420;BME280;29017;51.514;-0.178;2023-05-10T07:02:52;100836.31;;;15.28;87.40
43420;BME280;29017;51.514;-0.178;2023-05-10T07:05:20;100835.75;;;15.33;86.10
43420;BME280;29017;51.514;-0.178;2023-05-10T07:07:47;100830.72;;;15.38;86.38
43420;BME280;29017;51.514;-0.178;2023-05-10T07:10:15;100834.00;;;15.40;86.34
43420;BME280;29017;51.514;-0.178;2023-05-10T07:12:42;100831.34;;;15.40;85.63
43420;BME280;29017;51.514;-0.178;2023-05-10T07:15:09;100833.72;;;15.50;85.67
43420;BME280;29017;51.514;-0.178;2023-05-10T07:17:38;100837.13;;;15.58;85.62
43420;BME280;29017;51.514;-0.178;2023-05-10T07:20:09;100832.84;;;15.57;84.62
43420;BME280;29017;51.514;-0.178;2023-05-10T07:22:36;100835.19;;;15.67;85.03
43420;BME280;29017;51.514;-0.178;2023-05-10T07:25:03;100840.59;;;15.73;84.38
43420;BME280;29017;51.514;-0.178;2023-05-10T07:27:30;100844.50;;;15.77;84.15
43420;BME280;29017;51.514;-0.178;2023-05-10T07:29:57;100844.59;;;15.84;85.15
43420;BME280;29017;51.514;-0.178;2023-05-10T07:32:25;100851.44;;;15.93;85.50
43420;BME280;29017;51.514;-0.178;2023-05-10T07:34:53;100856.44;;;16.03;84.97
43420;BME280;29017;51.514;-0.178;2023-05-10T07:37:20;100856.72;;;16.29;84.10
43420;BME280;29017;51.514;-0.178;2023-05-10T07:39:47;100866.88;;;16.89;82.50
43420;BME280;29017;51.514;-0.178;2023-05-10T07:42:14;100859.47;;;17.88;77.64
43420;BME280;29017;51.514;-0.178;2023-05-10T07:44:42;100869.88;;;18.50;73.58
43420;BME280;29017;51.514;-0.178;2023-05-10T07:47:09;100869.47;;;18.53;71.63
43420;BME280;29017;51.514;-0.178;2023-05-10T07:49:38;100869.44;;;18.33;73.27
43420;BME280;29017;51.514;-0.178;2023-05-10T07:52:05;100861.66;;;18.32;72.88
43420;BME280;29017;51.514;-0.178;2023-05-10T07:54:32;100865.34;;;18.44;71.85
43420;BME280;29017;51.514;-0.178;2023-05-10T07:57:00;100862.72;;;18.90;70.13
43420;BME280;29017;51.514;-0.178;2023-05-10T07:59:29;100864.25;;;19.57;69.60
43420;BME280;29017;51.514;-0.178;2023-05-10T08:01:57;100866.38;;;19.93;66.42
43420;BME280;29017;51.514;-0.178;2023-05-10T08:04:24;100867.66;;;19.84;66.51
43420;BME280;29017;51.514;-0.178;2023-05-10T08:06:52;100861.94;;;19.80;66.48
43420;BME280;29017;51.514;-0.178;2023-05-10T08:09:19;100864.66;;;20.43;65.23
43420;BME280;29017;51.514;-0.178;2023-05-10T08:11:51;100878.38;;;20.78;63.03
43420;BME280;29017;51.514;-0.178;2023-05-10T08:14:18;100880.03;;;20.54;63.15
43420;BME280;29017;51.514;-0.178;2023-05-10T08:16:45;100877.56;;;20.15;64.02
43420;BME280;29017;51.514;-0.178;2023-05-10T08:19:12;100872.84;;;19.72;64.47
43420;BME280;29017;51.514;-0.178;2023-05-10T08:21:45;100874.34;;;19.35;66.51
43420;BME280;29017;51.514;-0.178;2023-05-10T08:24:13;100881.41;;;18.97;67.60
43420;BME280;29017;51.514;-0.178;2023-05-10T08:26:40;100880.38;;;18.71;69.85
43420;BME280;29017;51.514;-0.178;2023-05-10T08:29:07;100875.66;;;18.54;69.50
43420;BME280;29017;51.514;-0.178;2023-05-10T08:31:34;100875.19;;;18.50;70.00
43420;BME280;29017;51.514;-0.178;2023-05-10T08:34:02;100876.22;;;18.43;70.43
43420;BME280;29017;51.514;-0.178;2023-05-10T08:36:29;100885.44;;;18.33;71.69
43420;BME280;29017;51.514;-0.178;2023-05-10T08:38:56;100879.06;;;18.28;72.54
43420;BME280;29017;51.514;-0.178;2023-05-10T08:41:24;100883.53;;;18.08;71.42
43420;BME280;29017;51.514;-0.178;2023-05-10T08:43:55;100878.50;;;17.85;71.79
43420;BME280;29017;51.514;-0.178;2023-05-10T08:46:23;100882.53;;;17.68;72.74
43420;BME280;29017;51.514;-0.178;2023-05-10T08:48:50;100891.50;;;17.60;73.82
43420;BME280;29017;51.514;-0.178;2023-05-10T08:51:22;100883.44;;;17.53;73.97
43420;BME280;29017;51.514;-0.178;2023-05-10T08:53:50;100883.06;;;17.57;74.85
43420;BME280;29017;51.514;-0.178;2023-05-10T08:56:18;100886.19;;;17.60;75.46
43420;BME280;29017;51.514;-0.178;2023-05-10T08:58:47;100880.47;;;17.63;74.63
43420;BME280;29017;51.514;-0.178;2023-05-10T09:01:16;100887.06;;;17.74;75.15
43420;BME280;29017;51.514;-0.178;2023-05-10T09:03:46;100882.94;;;18.25;73.10
43420;BME280;29017;51.514;-0.178;2023-05-10T09:06:14;100883.03;;;19.04;70.90
43420;BME280;29017;51.514;-0.178;2023-05-10T09:08:43;100883.03;;;19.95;70.39
43420;BME280;29017;51.514;-0.178;2023-05-10T09:11:11;100892.09;;;20.88;64.37
43420;BME280;29017;51.514;-0.178;2023-05-10T09:13:39;100894.06;;;20.99;62.77
43420;BME280;29017;51.514;-0.178;2023-05-10T09:16:06;100891.59;;;20.73;63.10
43420;BME280;29017;51.514;-0.178;2023-05-10T09:18:47;100892.13;;;20.25;62.73
43420;BME280;29017;51.514;-0.178;2023-05-10T09:21:16;100898.06;;;19.83;64.43
43420;BME280;29017;51.514;-0.178;2023-05-10T09:23:44;100895.09;;;19.53;66.31
43420;BME280;29017;51.514;-0.178;2023-05-10T09:26:14;100887.72;;;19.29;67.28
43420;BME280;29017;51.514;-0.178;2023-05-10T09:28:52;100888.78;;;19.08;67.39
43420;BME280;29017;51.514;-0.178;2023-05-10T09:31:20;100889.41;;;18.97;68.63
43420;BME280;29017;51.514;-0.178;2023-05-10T09:33:48;100889.81;;;18.94;69.69
43420;BME280;29017;51.514;-0.178;2023-05-10T09:36:16;100884.91;;;18.84;69.81
43420;BME280;29017;51.514;-0.178;2023-05-10T09:41:20;100890.44;;;18.83;70.40
43420;BME280;29017;51.514;-0.178;2023-05-10T09:43:49;100887.34;;;18.86;69.56
43420;BME280;29017;51.514;-0.178;2023-05-10T09:46:16;100890.22;;;18.91;69.10
43420;BME280;29017;51.514;-0.178;2023-05-10T09:48:45;100888.56;;;18.90;67.86
43420;BME280;29017;51.514;-0.178;2023-05-10T09:51:22;100889.63;;;18.89;68.24
43420;BME280;29017;51.514;-0.178;2023-05-10T09:54:09;100890.84;;;18.93;70.39
43420;BME280;29017;51.514;-0.178;2023-05-10T09:56:37;100887.97;;;18.94;68.20
43420;BME280;29017;51.514;-0.178;2023-05-10T09:59:10;100884.69;;;18.99;68.17
43420;BME280;29017;51.514;-0.178;2023-05-10T10:01:38;100894.94;;;19.02;68.56
43420;BME280;29017;51.514;-0.178;2023-05-10T10:04:08;100893.09;;;19.02;68.97
43420;BME280;29017;51.514;-0.178;2023-05-10T10:06:36;100894.50;;;19.05;68.47
43420;BME280;29017;51.514;-0.178;2023-05-10T10:09:08;100891.44;;;19.08;68.37
43420;BME280;29017;51.514;-0.178;2023-05-10T10:11:37;100892.88;;;19.10;68.29
43420;BME280;29017;51.514;-0.178;2023-05-10T10:14:05;100895.97;;;19.14;66.96
43420;BME280;29017;51.514;-0.178;2023-05-10T10:16:32;100891.22;;;19.22;64.62
43420;BME280;29017;51.514;-0.178;2023-05-10T10:19:00;100895.72;;;19.22;64.80
43420;BME280;29017;51.514;-0.178;2023-05-10T10:21:28;100898.19;;;19.17;64.65
43420;BME280;29017;51.514;-0.178;2023-05-10T10:23:58;100896.16;;;19.12;65.54
43420;BME280;29017;51.514;-0.178;2023-05-10T10:26:25;100893.06;;;19.15;64.70
43420;BME280;29017;51.514;-0.178;2023-05-10T10:34:25;100891.81;;;19.31;63.85
43420;BME280;29017;51.514;-0.178;2023-05-10T10:36:57;100881.75;;;19.33;62.71
43420;BME280;29017;51.514;-0.178;2023-05-10T10:39:26;100886.28;;;19.39;63.57
43420;BME280;29017;51.514;-0.178;2023-05-10T10:41:55;100885.44;;;19.39;62.70
43420;BME280;29017;51.514;-0.178;2023-05-10T10:52:25;100879.88;;;19.53;60.78
43420;BME280;29017;51.514;-0.178;2023-05-10T10:57:25;100881.31;;;19.56;62.23
43420;BME280;29017;51.514;-0.178;2023-05-10T11:08:09;100878.28;;;19.33;60.11
43420;BME280;29017;51.514;-0.178;2023-05-10T11:10:37;100864.28;;;19.37;59.32
43420;BME280;29017;51.514;-0.178;2023-05-10T11:13:07;100867.56;;;19.46;59.56
43420;BME280;29017;51.514;-0.178;2023-05-10T11:15:37;100850.34;;;19.48;56.97
43420;BME280;29017;51.514;-0.178;2023-05-10T11:20:54;100867.97;;;19.56;57.02
43420;BME280;29017;51.514;-0.178;2023-05-10T11:23:22;100863.81;;;19.67;57.68
43420;BME280;29017;51.514;-0.178;2023-05-10T11:25:49;100872.19;;;19.77;56.80
43420;BME280;29017;51.514;-0.178;2023-05-10T11:28:17;100866.44;;;19.80;57.29
43420;BME280;29017;51.514;-0.178;2023-05-10T11:30:46;100862.75;;;19.81;58.60
43420;BME280;29017;51.514;-0.178;2023-05-10T11:33:16;100860.69;;;19.76;57.80
43420;BME280;29017;51.514;-0.178;2023-05-10T11:35:44;100865.00;;;19.77;58.63
43420;BME280;29017;51.514;-0.178;2023-05-10T11:38:13;100862.56;;;19.76;57.96
43420;BME280;29017;51.514;-0.178;2023-05-10T11:40:40;100870.78;;;19.74;58.34
43420;BME280;29017;51.514;-0.178;2023-05-10T11:43:08;100854.31;;;19.77;58.22
43420;BME280;29017;51.514;-0.178;2023-05-10T11:45:40;100853.47;;;19.83;55.76
43420;BME280;29017;51.514;-0.178;2023-05-10T11:48:08;100855.34;;;19.83;57.16
43420;BME280;29017;51.514;-0.178;2023-05-10T11:50:35;100858.00;;;19.83;59.19
43420;BME280;29017;51.514;-0.178;2023-05-10T11:53:02;100859.00;;;19.88;59.06
43420;BME280;29017;51.514;-0.178;2023-05-10T11:55:33;100860.63;;;19.96;58.37
43420;BME280;29017;51.514;-0.178;2023-05-10T11:58:01;100864.88;;;20.03;57.29
43420;BME280;29017;51.514;-0.178;2023-05-10T12:00:30;100864.84;;;20.10;57.70
43420;BME280;29017;51.514;-0.178;2023-05-10T12:03:00;100866.88;;;20.15;59.15
43420;BME280;29017;51.514;-0.178;2023-05-10T12:05:32;100872.13;;;20.28;56.56
43420;BME280;29017;51.514;-0.178;2023-05-10T12:08:11;100875.00;;;20.33;55.85
43420;BME280;29017;51.514;-0.178;2023-05-10T12:10:39;100871.94;;;20.29;56.73
43420;BME280;29017;51.514;-0.178;2023-05-10T12:13:12;100863.53;;;20.26;57.69
43420;BME280;29017;51.514;-0.178;2023-05-10T12:15:41;100861.91;;;20.18;58.85
43420;BME280;29017;51.514;-0.178;2023-05-10T12:18:10;100873.47;;;20.12;58.52
43420;BME280;29017;51.514;-0.178;2023-05-10T12:20:37;100874.75;;;20.03;58.71
43420;BME280;29017;51.514;-0.178;2023-05-10T12:23:07;100877.44;;;19.96;60.06
43420;BME280;29017;51.514;-0.178;2023-05-10T12:25:37;100876.47;;;19.91;59.71
43420;BME280;29017;51.514;-0.178;2023-05-10T12:28:08;100871.34;;;19.83;58.42
43420;BME280;29017;51.514;-0.178;2023-05-10T12:30:36;100886.59;;;19.76;57.02
43420;BME280;29017;51.514;-0.178;2023-05-10T12:33:09;100874.09;;;19.63;57.64
43420;BME280;29017;51.514;-0.178;2023-05-10T12:41:03;100871.44;;;19.56;61.46
43420;BME280;29017;51.514;-0.178;2023-05-10T12:43:31;100880.28;;;19.57;60.21
43420;BME280;29017;51.514;-0.178;2023-05-10T12:46:04;100877.22;;;19.60;62.16
43420;BME280;29017;51.514;-0.178;2023-05-10T12:48:32;100869.16;;;19.67;61.23
43420;BME280;29017;51.514;-0.178;2023-05-10T12:51:01;100882.03;;;19.83;60.36
43420;BME280;29017;51.514;-0.178;2023-05-10T12:53:30;100873.53;;;19.99;58.68
43420;BME280;29017;51.514;-0.178;2023-05-10T12:56:01;100869.75;;;20.13;57.35
43420;BME280;29017;51.514;-0.178;2023-05-10T12:58:28;100880.16;;;20.34;57.49
43420;BME280;29017;51.514;-0.178;2023-05-10T13:01:01;100876.63;;;20.40;56.96
43420;BME280;29017;51.514;-0.178;2023-05-10T13:03:31;100868.78;;;20.45;56.72
43420;BME280;29017;51.514;-0.178;2023-05-10T13:05:58;100880.13;;;20.41;57.46
43420;BME280;29017;51.514;-0.178;2023-05-10T13:08:25;100874.19;;;20.32;57.11
43420;BME280;29017;51.514;-0.178;2023-05-10T13:10:52;100870.94;;;20.24;57.19
43420;BME280;29017;51.514;-0.178;2023-05-10T13:13:19;100868.53;;;20.16;57.87
43420;BME280;29017;51.514;-0.178;2023-05-10T13:15:46;100871.03;;;20.11;58.93
43420;BME280;29017;51.514;-0.178;2023-05-10T13:18:13;100870.88;;;19.99;59.62
43420;BME280;29017;51.514;-0.178;2023-05-10T13:20:41;100871.34;;;19.89;58.96
43420;BME280;29017;51.514;-0.178;2023-05-10T13:23:10;100870.72;;;19.87;59.42
43420;BME280;29017;51.514;-0.178;2023-05-10T13:25:38;100863.13;;;19.91;61.55
43420;BME280;29017;51.514;-0.178;2023-05-10T13:28:05;100867.41;;;19.92;59.75
43420;BME280;29017;51.514;-0.178;2023-05-10T13:30:33;100867.19;;;19.93;59.72
43420;BME280;29017;51.514;-0.178;2023-05-10T13:33:00;100870.25;;;19.97;59.04